createdAt,value
2022-08-05T00:01:36.204Z,8.00
2022-08-05T00:04:17.547Z,8.05
2022-08-05T00:06:47.223Z,7.68
2022-08-05T00:09:19.641Z,7.43
2022-08-05T00:11:55.376Z,7.00
2022-08-05T00:14:28.997Z,6.68
2022-08-05T00:16:58.113Z,6.22
2022-08-05T00:19:33.135Z,6.50
2022-08-05T00:22:02.358Z,5.55
2022-08-05T00:24:31.956Z,6.25
2022-08-05T00:27:00.586Z,5.28
2022-08-05T00:29:37.981Z,4.97
2022-08-05T00:32:13.507Z,5.05
2022-08-05T00:35:04.370Z,3.95
2022-08-05T00:37:51.322Z,4.65
2022-08-05T00:40:29.276Z,4.20
2022-08-05T00:43:00.637Z,4.03
2022-08-05T00:45:38.675Z,4.10
2022-08-05T00:48:13.036Z,3.80
2022-08-05T00:50:44.148Z,3.78
2022-08-05T00:54:01.062Z,4.32
2022-08-05T00:56:03.110Z,4.10
2022-08-05T00:58:31.508Z,3.90
2022-08-05T01:00:59.859Z,3.72
2022-08-05T01:03:33.479Z,3.50
2022-08-05T01:06:03.921Z,3.67
2022-08-05T01:08:43.426Z,3.75
2022-08-05T01:11:33.503Z,3.80
2022-08-05T01:14:15.442Z,3.58
2022-08-05T01:16:52.269Z,3.58
2022-08-05T01:20:02.124Z,3.80
2022-08-05T01:22:46.951Z,2.90
2022-08-05T01:25:41.102Z,3.15
2022-08-05T01:28:36.585Z,3.15
2022-08-05T01:31:16.153Z,3.25
2022-08-05T01:33:55.433Z,3.03
2022-08-05T01:36:32.085Z,3.03
2022-08-05T01:39:02.243Z,2.78
2022-08-05T01:41:37.677Z,3.08
2022-08-05T01:44:11.261Z,3.22
2022-08-05T01:46:46.611Z,2.88
2022-08-05T01:49:23.895Z,3.00
2022-08-05T01:51:59.661Z,3.08
2022-08-05T01:54:36.421Z,3.38
2022-08-05T01:58:29.500Z,3.03
2022-08-05T02:00:39.465Z,3.08
2022-08-05T02:03:24.318Z,3.17
2022-08-05T02:05:59.664Z,3.60
2022-08-05T02:08:30.746Z,3.08
2022-08-05T02:11:08.061Z,3.63
2022-08-05T02:13:53.402Z,3.63
2022-08-05T02:16:32.686Z,3.05
2022-08-05T02:19:12.033Z,3.38
2022-08-05T02:21:49.382Z,3.13
2022-08-05T02:24:23.611Z,3.40
2022-08-05T02:26:57.218Z,3.03
2022-08-05T02:29:59.556Z,3.40
2022-08-05T02:32:24.213Z,3.00
2022-08-05T02:35:09.649Z,3.30
2022-08-05T02:37:47.727Z,3.63
2022-08-05T02:40:25.123Z,3.22
2022-08-05T02:42:56.702Z,3.13
2022-08-05T02:45:26.262Z,3.10
2022-08-05T02:48:11.835Z,2.97
2022-08-05T02:50:44.398Z,3.30
2022-08-05T02:53:16.054Z,4.13
2022-08-05T02:55:54.796Z,3.33
2022-08-05T02:58:30.211Z,3.60
2022-08-05T03:01:02.935Z,3.90
2022-08-05T03:04:04.362Z,3.63
2022-08-05T03:06:53.821Z,4.30
2022-08-05T03:09:15.716Z,4.10
2022-08-05T03:11:56.973Z,4.20
2022-08-05T03:14:26.673Z,4.00
2022-08-05T03:16:55.092Z,4.38
2022-08-05T03:19:33.953Z,4.22
2022-08-05T03:22:04.999Z,4.13
2022-08-05T03:24:47.278Z,3.95
2022-08-05T03:27:19.970Z,4.47
2022-08-05T03:30:07.354Z,4.47
2022-08-05T03:32:37.612Z,4.10
2022-08-05T03:35:09.215Z,4.05
2022-08-05T03:37:45.749Z,4.00
2022-08-05T03:40:24.163Z,4.30
2022-08-05T03:43:15.711Z,3.97
2022-08-05T03:45:57.386Z,4.00
2022-08-05T03:48:28.969Z,4.40
2022-08-05T03:52:34.951Z,4.63
2022-08-05T03:55:34.006Z,4.65
2022-08-05T03:56:53.662Z,4.63
2022-08-05T03:59:29.199Z,4.72
2022-08-05T04:02:38.229Z,4.30
2022-08-05T04:05:10.977Z,4.63
2022-08-05T04:07:57.510Z,4.60
2022-08-05T04:10:32.169Z,4.43
2022-08-05T04:13:06.507Z,4.80
2022-08-05T04:15:36.291Z,4.97
2022-08-05T04:18:09.455Z,4.18
2022-08-05T04:20:38.394Z,4.70
2022-08-05T04:23:16.117Z,3.97
2022-08-05T04:26:00.190Z,4.85
2022-08-05T04:28:30.823Z,5.10
2022-08-05T04:31:01.498Z,4.88
2022-08-05T04:33:54.375Z,4.88
2022-08-05T04:36:45.674Z,5.15
2022-08-05T04:39:08.985Z,4.60
2022-08-05T04:41:38.675Z,5.00
2022-08-05T04:44:09.462Z,5.10
2022-08-05T04:46:38.903Z,6.20
2022-08-05T04:49:12.395Z,5.82
2022-08-05T04:51:44.457Z,5.35
2022-08-05T04:54:14.575Z,5.63
2022-08-05T04:56:43.637Z,5.63
2022-08-05T04:59:21.924Z,5.75
2022-08-05T05:02:07.456Z,5.55
2022-08-05T05:04:47.543Z,5.78
2022-08-05T05:07:17.218Z,6.38
2022-08-05T05:09:47.062Z,6.93
2022-08-05T05:12:15.351Z,6.32
2022-08-05T05:14:50.697Z,6.47
2022-08-05T05:17:23.935Z,6.38
2022-08-05T05:19:56.549Z,6.68
2022-08-05T05:22:26.141Z,6.47
2022-08-05T05:24:59.944Z,6.90
2022-08-05T05:27:45.377Z,6.30
2022-08-05T05:30:30.927Z,6.22
2022-08-05T05:33:16.433Z,6.57
2022-08-05T05:35:47.690Z,6.50
2022-08-05T05:38:22.450Z,6.45
2022-08-05T05:40:57.294Z,6.93
2022-08-05T05:43:56.536Z,6.60
2022-08-05T05:46:17.283Z,6.78
2022-08-05T05:48:48.126Z,6.32
2022-08-05T05:51:21.718Z,6.20
2022-08-05T05:53:57.697Z,6.88
2022-08-05T05:56:31.636Z,6.78
2022-08-05T05:59:03.541Z,6.90
2022-08-05T06:01:37.959Z,6.32
2022-08-05T06:04:11.294Z,6.60
2022-08-05T06:06:42.413Z,8.52
2022-08-05T06:09:17.419Z,6.75
2022-08-05T06:12:01.203Z,6.65
2022-08-05T06:14:30.803Z,6.70
2022-08-05T06:17:22.433Z,6.70
2022-08-05T06:19:56.938Z,6.45
2022-08-05T06:22:33.498Z,6.78
2022-08-05T06:25:25.047Z,6.80
2022-08-05T06:28:08.988Z,6.43
2022-08-05T06:30:39.885Z,6.80
2022-08-05T06:33:10.609Z,6.35
2022-08-05T06:36:05.656Z,6.47
2022-08-05T06:38:36.213Z,6.40
2022-08-05T06:41:07.822Z,6.40
2022-08-05T06:43:59.786Z,6.70
2022-08-05T06:46:29.873Z,5.95
2022-08-05T06:50:00.618Z,5.70
2022-08-05T06:52:36.732Z,6.07
2022-08-05T06:55:05.734Z,5.65
2022-08-05T06:58:02.610Z,6.32
2022-08-05T07:00:25.050Z,4.90
2022-08-05T07:02:54.444Z,5.40
2022-08-05T07:05:31.840Z,5.25
2022-08-05T07:08:10.923Z,5.18
2022-08-05T07:10:52.790Z,4.93
2022-08-05T07:13:57.711Z,4.53
2022-08-05T07:18:01.163Z,4.93
2022-08-05T07:20:31.343Z,4.88
2022-08-05T07:22:27.692Z,4.40
2022-08-05T07:25:23.027Z,4.57
2022-08-05T07:27:59.774Z,4.40
2022-08-05T07:30:34.272Z,5.00
2022-08-05T07:33:09.999Z,4.28
2022-08-05T07:36:04.333Z,4.03
2022-08-05T07:38:33.357Z,4.30
2022-08-05T07:42:06.943Z,4.82
2022-08-05T07:43:56.073Z,4.50
2022-08-05T07:46:38.146Z,3.97
2022-08-05T07:49:08.062Z,4.00
2022-08-05T07:52:02.495Z,4.10
2022-08-05T07:54:38.626Z,4.07
2022-08-05T07:57:17.891Z,4.05
2022-08-05T07:59:57.880Z,4.32
2022-08-05T08:02:31.219Z,3.30
2022-08-05T08:05:18.727Z,3.75
2022-08-05T08:07:58.991Z,3.90
2022-08-05T08:10:40.198Z,3.85
2022-08-05T08:13:11.496Z,4.13
2022-08-05T08:16:35.120Z,4.20
2022-08-05T08:18:33.633Z,3.70
2022-08-05T08:21:04.058Z,3.85
2022-08-05T08:24:10.610Z,4.07
2022-08-05T08:26:41.743Z,3.78
2022-08-05T08:29:29.420Z,4.10
2022-08-05T08:32:00.554Z,4.10
2022-08-05T08:34:57.977Z,4.30
2022-08-05T08:37:28.143Z,4.32
2022-08-05T08:39:56.595Z,4.32
2022-08-05T08:42:34.096Z,4.35
2022-08-05T08:45:23.786Z,4.50
2022-08-05T08:48:10.743Z,4.03
2022-08-05T08:51:21.941Z,3.90
2022-08-05T08:53:45.188Z,3.47
2022-08-05T08:56:13.717Z,3.90
2022-08-05T08:58:44.644Z,3.95
2022-08-05T09:01:18.218Z,4.10
2022-08-05T09:03:54.623Z,3.90
2022-08-05T09:06:29.501Z,4.30
2022-08-05T09:09:02.433Z,3.88
2022-08-05T09:11:51.371Z,3.33
2022-08-05T09:14:59.092Z,3.30
2022-08-05T09:17:42.733Z,3.58
2022-08-05T09:20:04.784Z,3.83
2022-08-05T09:23:09.546Z,3.95
2022-08-05T09:26:00.267Z,3.67
2022-08-05T09:28:32.154Z,4.20
2022-08-05T09:31:22.068Z,4.00
2022-08-05T09:33:56.584Z,4.15
2022-08-05T09:36:27.639Z,3.97
2022-08-05T09:39:16.502Z,3.90
2022-08-05T09:42:03.853Z,4.47
2022-08-05T09:44:37.975Z,3.35
2022-08-05T09:47:15.747Z,3.70
2022-08-05T09:50:01.375Z,3.47
2022-08-05T09:52:32.985Z,3.42
2022-08-05T09:55:55.147Z,3.40
2022-08-05T09:57:58.577Z,3.70
2022-08-05T10:00:34.336Z,3.85
2022-08-05T10:03:11.217Z,3.40
2022-08-05T10:05:41.778Z,28.50
2022-08-05T10:08:34.770Z,4.32
2022-08-05T10:10:59.165Z,2.80
2022-08-05T10:13:46.260Z,2.70
2022-08-05T10:16:41.599Z,3.20
2022-08-05T10:20:03.100Z,2.70
2022-08-05T10:22:30.058Z,3.58
2022-08-05T10:24:59.035Z,3.38
2022-08-05T10:28:09.150Z,3.00
2022-08-05T10:31:20.170Z,3.33
2022-08-05T10:33:10.193Z,3.50
2022-08-05T10:35:44.312Z,2.95
2022-08-05T10:38:15.402Z,3.13
2022-08-05T10:40:59.555Z,3.53
2022-08-05T10:43:51.850Z,3.13
2022-08-05T10:46:23.930Z,3.35
2022-08-05T10:49:01.514Z,3.40
2022-08-05T10:51:58.274Z,2.55
2022-08-05T10:54:56.481Z,3.22
2022-08-05T10:57:32.038Z,3.33
2022-08-05T11:00:19.213Z,3.30
2022-08-05T11:03:25.806Z,3.20
2022-08-05T11:06:15.579Z,3.00
2022-08-05T11:09:32.039Z,3.33
2022-08-05T11:12:50.898Z,3.17
2022-08-05T11:16:00.729Z,2.88
2022-08-05T11:18:32.568Z,3.47
2022-08-05T11:21:06.151Z,3.70
2022-08-05T11:24:04.818Z,3.80
2022-08-05T11:27:25.834Z,3.65
2022-08-05T11:30:01.490Z,3.63
2022-08-05T11:32:31.436Z,3.65
2022-08-05T11:35:01.165Z,3.85
2022-08-05T11:38:26.390Z,4.18
2022-08-05T11:41:12.675Z,4.10
2022-08-05T11:44:04.725Z,4.18
2022-08-05T11:47:09.819Z,3.97
2022-08-05T11:49:27.764Z,4.40
2022-08-05T11:51:57.909Z,3.70
2022-08-05T11:54:33.246Z,3.50
2022-08-05T11:57:08.854Z,4.30
2022-08-05T11:59:54.582Z,3.50
2022-08-05T12:02:30.561Z,3.95
2022-08-05T12:05:07.203Z,3.80
2022-08-05T12:08:03.757Z,3.65
2022-08-05T12:10:45.883Z,3.75
2022-08-05T12:13:47.446Z,3.53
2022-08-05T12:16:14.732Z,3.00
2022-08-05T12:18:49.608Z,2.70
2022-08-05T12:21:26.580Z,2.67
2022-08-05T12:24:04.881Z,2.78
2022-08-05T12:26:37.199Z,2.65
2022-08-05T12:29:09.521Z,2.55
2022-08-05T12:31:46.093Z,2.22
2022-08-05T12:34:23.698Z,2.30
2022-08-05T12:36:56.500Z,2.25
2022-08-05T12:39:37.476Z,2.42
2022-08-05T12:42:14.837Z,2.20
2022-08-05T12:44:45.953Z,2.60
2022-08-05T12:47:31.773Z,2.55
2022-08-05T12:50:02.262Z,2.30
2022-08-05T12:52:39.014Z,2.60
2022-08-05T12:55:25.578Z,2.42
2022-08-05T12:58:48.355Z,2.05
2022-08-05T13:02:00.691Z,1.90
2022-08-05T13:03:42.448Z,2.28
2022-08-05T13:06:20.701Z,1.90
2022-08-05T13:08:51.666Z,1.70
2022-08-05T13:11:35.085Z,2.00
2022-08-05T13:14:25.122Z,1.90
2022-08-05T13:17:11.259Z,2.50
2022-08-05T13:19:51.642Z,1.85
2022-08-05T13:22:27.985Z,1.65
2022-08-05T13:25:05.182Z,1.67
2022-08-05T13:27:41.273Z,1.58
2022-08-05T13:30:34.924Z,1.83
2022-08-05T13:33:02.122Z,1.70
2022-08-05T13:35:51.528Z,1.92
2022-08-05T13:38:34.186Z,1.90
2022-08-05T13:41:07.007Z,1.70
2022-08-05T13:43:44.094Z,1.70
2022-08-05T13:46:50.569Z,1.98
2022-08-05T13:49:31.069Z,1.63
2022-08-05T13:52:12.638Z,2.50
2022-08-05T13:54:41.293Z,2.13
2022-08-05T13:57:11.117Z,3.13
2022-08-05T13:59:55.547Z,3.00
2022-08-05T14:02:29.842Z,2.85
2022-08-05T14:05:19.612Z,2.60
2022-08-05T14:08:20.341Z,3.00
2022-08-05T14:10:50.120Z,2.45
2022-08-05T14:13:38.251Z,2.13
2022-08-05T14:16:11.574Z,2.50
2022-08-05T14:18:47.584Z,2.40
2022-08-05T14:22:07.505Z,2.10
2022-08-05T14:24:04.815Z,2.10
2022-08-05T14:26:35.846Z,2.33
2022-08-05T14:29:16.268Z,2.60
2022-08-05T14:32:02.980Z,2.60
2022-08-05T14:34:36.713Z,2.78
2022-08-05T14:37:06.030Z,2.70
2022-08-05T14:39:49.573Z,3.15
2022-08-05T14:42:25.080Z,2.55
2022-08-05T14:44:53.947Z,2.97
2022-08-05T14:48:02.495Z,2.97
2022-08-05T14:50:19.095Z,2.92
2022-08-05T14:52:53.441Z,2.78
2022-08-05T14:55:28.647Z,2.67
2022-08-05T14:58:11.135Z,2.90
2022-08-05T15:00:59.751Z,2.90
2022-08-05T15:03:34.103Z,2.70
2022-08-05T15:06:15.420Z,2.42
2022-08-05T15:08:59.471Z,3.03
2022-08-05T15:11:50.860Z,3.30
2022-08-05T15:14:35.838Z,2.88
2022-08-05T15:17:44.470Z,2.72
2022-08-05T15:20:00.000Z,2.70
2022-08-05T15:22:28.832Z,3.10
2022-08-05T15:24:58.912Z,2.90
2022-08-05T15:27:31.920Z,3.20
2022-08-05T15:30:00.784Z,2.50
2022-08-05T15:32:29.299Z,2.90
2022-08-05T15:35:04.091Z,3.65
2022-08-05T15:38:31.876Z,3.22
2022-08-05T15:41:04.232Z,2.90
2022-08-05T15:43:20.204Z,2.38
2022-08-05T15:45:59.868Z,2.35
2022-08-05T15:48:29.934Z,2.33
2022-08-05T15:51:03.653Z,2.17
2022-08-05T15:53:38.017Z,2.10
2022-08-05T15:56:21.104Z,2.40
2022-08-05T15:58:50.161Z,2.08
2022-08-05T16:01:20.023Z,1.98
2022-08-05T16:03:50.401Z,2.00
2022-08-05T16:06:21.021Z,1.70
2022-08-05T16:08:55.403Z,1.45
2022-08-05T16:11:39.938Z,1.92
2022-08-05T16:14:17.280Z,1.50
2022-08-05T16:16:47.129Z,1.95
2022-08-05T16:19:25.334Z,1.70
2022-08-05T16:22:06.334Z,1.63
2022-08-05T16:24:40.130Z,1.65
2022-08-05T16:27:15.978Z,1.30
2022-08-05T16:29:50.050Z,1.65
2022-08-05T16:32:28.819Z,1.30
2022-08-05T16:34:58.906Z,1.15
2022-08-05T16:38:15.604Z,1.30
2022-08-05T16:40:25.044Z,1.10
2022-08-05T16:42:58.173Z,1.30
2022-08-05T16:46:07.557Z,1.50
2022-08-05T16:48:25.782Z,1.27
2022-08-05T16:51:01.210Z,1.30
2022-08-05T16:53:32.250Z,1.10
2022-08-05T16:56:19.270Z,1.10
2022-08-05T16:58:47.998Z,1.10
2022-08-05T17:01:16.294Z,1.25
2022-08-05T17:03:47.269Z,1.42
2022-08-05T17:06:41.873Z,1.10
2022-08-05T17:09:11.566Z,1.33
2022-08-05T17:11:48.665Z,1.35
2022-08-05T17:14:22.284Z,1.20
2022-08-05T17:17:03.380Z,1.35
2022-08-05T17:19:32.958Z,1.65
2022-08-05T17:22:02.288Z,1.27
2022-08-05T17:24:38.616Z,1.50
2022-08-05T17:27:11.830Z,1.25
2022-08-05T17:29:44.327Z,1.13
2022-08-05T17:32:17.069Z,1.20
2022-08-05T17:34:47.849Z,1.20
2022-08-05T17:37:41.635Z,1.05
2022-08-05T17:40:12.336Z,1.17
2022-08-05T17:42:49.765Z,1.00
2022-08-05T17:45:22.115Z,1.30
2022-08-05T17:47:55.013Z,1.33
2022-08-05T17:50:29.482Z,1.25
2022-08-05T17:53:01.261Z,1.00
2022-08-05T17:55:37.686Z,1.17
2022-08-05T17:58:11.239Z,0.82
2022-08-05T18:00:44.981Z,0.95
2022-08-05T18:03:56.343Z,0.90
2022-08-05T18:06:12.106Z,0.90
2022-08-05T18:08:46.155Z,1.17
2022-08-05T18:11:32.621Z,1.20
2022-08-05T18:14:06.686Z,1.00
2022-08-05T18:16:47.049Z,0.90
2022-08-05T18:19:23.059Z,0.82
2022-08-05T18:22:07.638Z,0.85
2022-08-05T18:24:39.696Z,1.40
2022-08-05T18:27:12.316Z,1.33
2022-08-05T18:29:41.537Z,1.10
2022-08-05T18:32:13.051Z,1.40
2022-08-05T18:34:44.750Z,0.90
2022-08-05T18:37:33.664Z,1.00
2022-08-05T18:40:33.773Z,1.17
2022-08-05T18:42:52.274Z,1.00
2022-08-05T18:45:20.755Z,1.02
2022-08-05T18:47:56.820Z,1.00
2022-08-05T18:50:46.452Z,1.10
2022-08-05T18:53:20.531Z,1.00
2022-08-05T18:55:53.450Z,1.10
2022-08-05T18:58:28.607Z,1.08
2022-08-05T19:00:59.651Z,1.20
2022-08-05T19:03:53.420Z,1.13
2022-08-05T19:06:21.620Z,1.38
2022-08-05T19:08:50.686Z,1.00
2022-08-05T19:11:21.931Z,1.20
2022-08-05T19:14:01.062Z,1.02
2022-08-05T19:16:46.928Z,1.10
2022-08-05T19:19:15.734Z,1.15
2022-08-05T19:21:51.467Z,1.25
2022-08-05T19:24:34.533Z,1.10
2022-08-05T19:27:04.012Z,1.10
2022-08-05T19:29:35.778Z,1.10
2022-08-05T19:32:11.573Z,1.10
2022-08-05T19:34:40.779Z,1.05
2022-08-05T19:37:10.969Z,1.10
2022-08-05T19:39:45.859Z,1.20
2022-08-05T19:42:35.846Z,1.10
2022-08-05T19:45:07.682Z,1.05
2022-08-05T19:47:37.412Z,1.33
2022-08-05T19:50:10.572Z,0.98
2022-08-05T19:52:41.202Z,1.10
2022-08-05T19:56:14.202Z,1.15
2022-08-05T19:58:19.569Z,1.02
2022-08-05T20:00:49.049Z,1.10
2022-08-05T20:03:17.273Z,1.35
2022-08-05T20:05:51.334Z,1.10
2022-08-05T20:08:20.869Z,1.30
2022-08-05T20:10:53.935Z,1.20
2022-08-05T20:13:54.605Z,1.40
2022-08-05T20:16:12.321Z,1.13
2022-08-05T20:18:40.865Z,1.35
2022-08-05T20:21:09.686Z,1.50
2022-08-05T20:23:51.023Z,1.10
2022-08-05T20:26:24.603Z,1.27
2022-08-05T20:28:56.925Z,1.33
2022-08-05T20:31:43.258Z,1.27
2022-08-05T20:34:17.295Z,1.30
2022-08-05T20:36:46.022Z,1.30
2022-08-05T20:39:16.313Z,1.50
2022-08-05T20:41:46.651Z,1.30
2022-08-05T20:44:29.506Z,1.65
2022-08-05T20:47:03.084Z,1.70
2022-08-05T20:49:37.763Z,1.50
2022-08-05T20:52:07.666Z,1.73
2022-08-05T20:54:55.151Z,1.58
2022-08-05T20:57:43.560Z,1.30
2022-08-05T21:00:40.483Z,1.40
2022-08-05T21:03:08.178Z,1.58
2022-08-05T21:05:53.625Z,1.50
2022-08-05T21:08:26.883Z,1.58
2022-08-05T21:10:58.280Z,1.70
2022-08-05T21:13:47.784Z,1.60
2022-08-05T21:16:43.729Z,1.67
2022-08-05T21:19:13.270Z,1.75
2022-08-05T21:21:50.650Z,1.60
2022-08-05T21:24:21.802Z,1.40
2022-08-05T21:26:53.325Z,1.50
2022-08-05T21:29:32.243Z,1.50
2022-08-05T21:32:03.097Z,1.73
2022-08-05T21:34:35.392Z,1.40
2022-08-05T21:37:08.112Z,1.58
2022-08-05T21:39:40.271Z,1.60
2022-08-05T21:42:19.815Z,1.52
2022-08-05T21:44:57.684Z,1.55
2022-08-05T21:47:55.521Z,1.73
2022-08-05T21:50:16.703Z,1.67
2022-08-05T21:52:47.427Z,1.50
2022-08-05T21:55:17.092Z,1.50
2022-08-05T21:57:45.807Z,1.85
2022-08-05T22:00:16.024Z,1.60
2022-08-05T22:02:44.498Z,1.60
2022-08-05T22:05:15.336Z,1.63
2022-08-05T22:07:58.417Z,2.00
2022-08-05T22:10:29.105Z,1.77
2022-08-05T22:13:58.874Z,1.60
2022-08-05T22:16:00.411Z,1.60
2022-08-05T22:18:33.324Z,1.50
2022-08-05T22:21:04.235Z,1.45
2022-08-05T22:24:00.935Z,1.58
2022-08-05T22:26:50.572Z,1.30
2022-08-05T22:29:26.255Z,1.52
2022-08-05T22:31:59.196Z,1.60
2022-08-05T22:34:28.844Z,2.22
2022-08-05T22:37:00.447Z,1.80
2022-08-05T22:39:33.308Z,1.80
2022-08-05T22:42:11.385Z,1.55
2022-08-05T22:44:48.604Z,1.70
2022-08-05T22:47:29.198Z,1.58
2022-08-05T22:50:19.178Z,1.60
2022-08-05T22:52:52.571Z,1.73
2022-08-05T22:55:22.618Z,1.70
2022-08-05T22:57:52.307Z,1.60
2022-08-05T23:00:23.093Z,1.60
2022-08-05T23:02:52.048Z,1.55
2022-08-05T23:05:29.830Z,1.42
2022-08-05T23:08:05.983Z,1.48
2022-08-05T23:10:56.014Z,1.55
2022-08-05T23:13:24.436Z,1.52
2022-08-05T23:15:53.656Z,1.45
2022-08-05T23:18:23.810Z,1.85
2022-08-05T23:20:52.068Z,1.50
2022-08-05T23:23:21.624Z,1.52
2022-08-05T23:25:55.511Z,1.38
2022-08-05T23:28:28.667Z,1.60
2022-08-05T23:31:16.387Z,1.40
2022-08-05T23:34:05.043Z,1.80
2022-08-05T23:36:39.997Z,1.92
2022-08-05T23:39:17.630Z,1.50
2022-08-05T23:42:01.602Z,1.67
2022-08-05T23:44:32.264Z,2.47
2022-08-05T23:47:02.543Z,1.88
2022-08-05T23:49:43.029Z,1.95
2022-08-05T23:52:30.811Z,1.60
2022-08-05T23:55:06.992Z,1.90
2022-08-05T23:57:48.837Z,1.40
